sensor_id;sensor_type;location;lat;lon;timestamp;temperature;humidity
34147;DHT22;20423;49.448;9.056;2023-07-31T00:00:04;14.70;99.90
34147;DHT22;20423;49.448;9.056;2023-07-31T00:02:30;14.70;99.90
34147;DHT22;20423;49.448;9.056;2023-07-31T00:04:56;14.80;99.90
34147;DHT22;20423;49.448;9.056;2023-07-31T00:07:21;14.70;99.90
34147;DHT22;20423;49.448;9.056;2023-07-31T00:09:47;14.60;99.90
34147;DHT22;20423;49.448;9.056;2023-07-31T00:12:13;14.50;99.90
34147;DHT22;20423;49.448;9.056;2023-07-31T00:14:38;14.50;99.90
34147;DHT22;20423;49.448;9.056;2023-07-31T00:17:04;14.50;99.90
34147;DHT22;20423;49.448;9.056;2023-07-31T00:19:29;14.50;99.90
34147;DHT22;20423;49.448;9.056;2023-07-31T00:21:55;14.50;99.90
34147;DHT22;20423;49.448;9.056;2023-07-31T00:24:21;14.40;99.90
34147;DHT22;20423;49.448;9.056;2023-07-31T00:26:46;14.40;99.90
34147;DHT22;20423;49.448;9.056;2023-07-31T00:29:12;14.40;99.90
34147;DHT22;20423;49.448;9.056;2023-07-31T00:31:37;14.40;99.90
34147;DHT22;20423;49.448;9.056;2023-07-31T00:34:03;14.40;99.90
34147;DHT22;20423;49.448;9.056;2023-07-31T00:36:28;14.50;99.90
34147;DHT22;20423;49.448;9.056;2023-07-31T00:38:54;14.50;99.90
34147;DHT22;20423;49.448;9.056;2023-07-31T00:41:19;14.60;99.90
34147;DHT22;20423;49.448;9.056;2023-07-31T00:43:45;14.70;99.90
34147;DHT22;20423;49.448;9.056;2023-07-31T00:46:11;14.70;99.90
34147;DHT22;20423;49.448;9.056;2023-07-31T00:48:36;14.80;99.90
34147;DHT22;20423;49.448;9.056;2023-07-31T00:51:02;14.90;99.90
34147;DHT22;20423;49.448;9.056;2023-07-31T00:53:28;14.90;99.90
34147;DHT22;20423;49.448;9.056;2023-07-31T00:55:54;15.00;99.90
34147;DHT22;20423;49.448;9.056;2023-07-31T00:58:19;14.90;99.90
34147;DHT22;20423;49.448;9.056;2023-07-31T01:04:13;15.00;99.90
34147;DHT22;20423;49.448;9.056;2023-07-31T01:06:50;14.90;99.90
34147;DHT22;20423;49.448;9.056;2023-07-31T01:09:20;14.90;99.90
34147;DHT22;20423;49.448;9.056;2023-07-31T01:11:53;14.90;99.90
34147;DHT22;20423;49.448;9.056;2023-07-31T01:14:20;14.80;99.90
34147;DHT22;20423;49.448;9.056;2023-07-31T01:16:45;14.70;99.90
34147;DHT22;20423;49.448;9.056;2023-07-31T01:19:11;14.70;99.90
34147;DHT22;20423;49.448;9.056;2023-07-31T01:24:28;14.50;99.90
34147;DHT22;20423;49.448;9.056;2023-07-31T01:26:56;14.40;99.90
34147;DHT22;20423;49.448;9.056;2023-07-31T01:29:28;14.40;99.90
34147;DHT22;20423;49.448;9.056;2023-07-31T01:31:56;14.40;99.90
34147;DHT22;20423;49.448;9.056;2023-07-31T01:34:22;14.50;99.90
34147;DHT22;20423;49.448;9.056;2023-07-31T01:36:47;14.50;99.90
34147;DHT22;20423;49.448;9.056;2023-07-31T01:39:13;14.50;99.90
34147;DHT22;20423;49.448;9.056;2023-07-31T01:41:40;14.60;99.90
34147;DHT22;20423;49.448;9.056;2023-07-31T01:44:06;14.60;99.90
34147;DHT22;20423;49.448;9.056;2023-07-31T01:46:32;14.70;99.90
34147;DHT22;20423;49.448;9.056;2023-07-31T01:48:57;14.80;99.90
34147;DHT22;20423;49.448;9.056;2023-07-31T01:51:23;14.80;99.90
34147;DHT22;20423;49.448;9.056;2023-07-31T01:53:48;14.80;99.90
34147;DHT22;20423;49.448;9.056;2023-07-31T01:56:14;14.80;99.90
34147;DHT22;20423;49.448;9.056;2023-07-31T01:58:40;14.90;99.90
34147;DHT22;20423;49.448;9.056;2023-07-31T02:01:06;14.80;99.90
34147;DHT22;20423;49.448;9.056;2023-07-31T02:03:33;14.90;99.90
34147;DHT22;20423;49.448;9.056;2023-07-31T02:09:27;14.90;99.90
34147;DHT22;20423;49.448;9.056;2023-07-31T02:11:53;15.00;99.90
34147;DHT22;20423;49.448;9.056;2023-07-31T02:14:18;15.00;99.90
34147;DHT22;20423;49.448;9.056;2023-07-31T02:16:44;15.10;99.90
34147;DHT22;20423;49.448;9.056;2023-07-31T02:19:10;15.10;99.90
34147;DHT22;20423;49.448;9.056;2023-07-31T02:21:35;15.00;99.90
34147;DHT22;20423;49.448;9.056;2023-07-31T02:24:01;15.00;99.90
34147;DHT22;20423;49.448;9.056;2023-07-31T02:26:35;15.10;99.90
34147;DHT22;20423;49.448;9.056;2023-07-31T02:29:01;15.10;99.90
34147;DHT22;20423;49.448;9.056;2023-07-31T02:31:27;15.10;99.90
34147;DHT22;20423;49.448;9.056;2023-07-31T02:33:53;15.10;99.90
34147;DHT22;20423;49.448;9.056;2023-07-31T02:36:18;15.00;99.90
34147;DHT22;20423;49.448;9.056;2023-07-31T02:38:44;15.00;99.90
34147;DHT22;20423;49.448;9.056;2023-07-31T02:41:10;15.00;99.90
34147;DHT22;20423;49.448;9.056;2023-07-31T02:43:35;14.90;99.90
34147;DHT22;20423;49.448;9.056;2023-07-31T02:46:01;14.90;99.90
34147;DHT22;20423;49.448;9.056;2023-07-31T02:48:26;14.90;99.90
34147;DHT22;20423;49.448;9.056;2023-07-31T02:56:52;14.80;99.90
34147;DHT22;20423;49.448;9.056;2023-07-31T02:59:18;14.70;99.90
34147;DHT22;20423;49.448;9.056;2023-07-31T03:01:44;14.60;99.90
34147;DHT22;20423;49.448;9.056;2023-07-31T03:04:10;14.60;99.90
34147;DHT22;20423;49.448;9.056;2023-07-31T03:06:36;14.60;99.90
34147;DHT22;20423;49.448;9.056;2023-07-31T03:09:01;14.70;99.90
34147;DHT22;20423;49.448;9.056;2023-07-31T03:11:27;14.70;99.90
34147;DHT22;20423;49.448;9.056;2023-07-31T03:13:53;14.70;99.90
34147;DHT22;20423;49.448;9.056;2023-07-31T03:16:19;14.70;99.90
34147;DHT22;20423;49.448;9.056;2023-07-31T03:21:47;14.80;99.90
34147;DHT22;20423;49.448;9.056;2023-07-31T03:27:00;14.80;99.90
34147;DHT22;20423;49.448;9.056;2023-07-31T03:29:27;14.80;99.90
34147;DHT22;20423;49.448;9.056;2023-07-31T03:34:39;14.80;99.90
34147;DHT22;20423;49.448;9.056;2023-07-31T03:37:08;14.70;99.90
34147;DHT22;20423;49.448;9.056;2023-07-31T03:39:35;14.80;99.90
34147;DHT22;20423;49.448;9.056;2023-07-31T03:42:00;14.70;99.90
34147;DHT22;20423;49.448;9.056;2023-07-31T03:44:28;14.70;99.90
34147;DHT22;20423;49.448;9.056;2023-07-31T03:46:53;14.70;99.90
34147;DHT22;20423;49.448;9.056;2023-07-31T03:49:19;14.80;99.90
34147;DHT22;20423;49.448;9.056;2023-07-31T03:51:45;14.70;99.90
34147;DHT22;20423;49.448;9.056;2023-07-31T03:54:12;14.70;99.90
34147;DHT22;20423;49.448;9.056;2023-07-31T03:56:41;14.70;99.90
34147;DHT22;20423;49.448;9.056;2023-07-31T03:59:07;14.70;99.90
34147;DHT22;20423;49.448;9.056;2023-07-31T04:01:32;14.70;99.90
34147;DHT22;20423;49.448;9.056;2023-07-31T04:03:58;14.70;99.90
34147;DHT22;20423;49.448;9.056;2023-07-31T04:06:24;14.60;99.90
34147;DHT22;20423;49.448;9.056;2023-07-31T04:08:49;14.60;99.90
34147;DHT22;20423;49.448;9.056;2023-07-31T04:11:15;14.50;99.90
34147;DHT22;20423;49.448;9.056;2023-07-31T04:13:40;14.50;99.90
34147;DHT22;20423;49.448;9.056;2023-07-31T04:16:06;14.50;99.90
34147;DHT22;20423;49.448;9.056;2023-07-31T04:18:32;14.50;99.90
34147;DHT22;20423;49.448;9.056;2023-07-31T04:20:57;14.50;99.90
34147;DHT22;20423;49.448;9.056;2023-07-31T04:23:27;14.50;99.90
34147;DHT22;20423;49.448;9.056;2023-07-31T04:25:53;14.60;99.90
34147;DHT22;20423;49.448;9.056;2023-07-31T04:28:18;14.60;99.90
34147;DHT22;20423;49.448;9.056;2023-07-31T04:30:44;14.70;99.90
34147;DHT22;20423;49.448;9.056;2023-07-31T04:33:10;14.70;99.90
34147;DHT22;20423;49.448;9.056;2023-07-31T04:35:35;14.80;99.90
34147;DHT22;20423;49.448;9.056;2023-07-31T04:38:01;14.80;99.90
34147;DHT22;20423;49.448;9.056;2023-07-31T04:40:26;14.80;99.90
34147;DHT22;20423;49.448;9.056;2023-07-31T04:42:52;14.80;99.90
34147;DHT22;20423;49.448;9.056;2023-07-31T04:45:18;14.80;99.90
34147;DHT22;20423;49.448;9.056;2023-07-31T04:47:43;14.80;99.90
34147;DHT22;20423;49.448;9.056;2023-07-31T04:50:09;14.80;99.90
34147;DHT22;20423;49.448;9.056;2023-07-31T04:52:34;14.80;99.90
34147;DHT22;20423;49.448;9.056;2023-07-31T04:55:00;14.80;99.90
34147;DHT22;20423;49.448;9.056;2023-07-31T04:57:26;14.80;99.90
34147;DHT22;20423;49.448;9.056;2023-07-31T04:59:51;14.90;99.90
34147;DHT22;20423;49.448;9.056;2023-07-31T05:02:17;14.90;99.90
34147;DHT22;20423;49.448;9.056;2023-07-31T05:04:42;14.80;99.90
34147;DHT22;20423;49.448;9.056;2023-07-31T05:07:08;14.80;99.90
34147;DHT22;20423;49.448;9.056;2023-07-31T05:09:34;14.80;99.90
34147;DHT22;20423;49.448;9.056;2023-07-31T05:11:59;14.80;99.90
34147;DHT22;20423;49.448;9.056;2023-07-31T05:14:25;14.90;99.90
34147;DHT22;20423;49.448;9.056;2023-07-31T05:16:51;14.90;99.90
34147;DHT22;20423;49.448;9.056;2023-07-31T05:19:19;14.90;99.90
34147;DHT22;20423;49.448;9.056;2023-07-31T05:21:44;14.90;99.90
34147;DHT22;20423;49.448;9.056;2023-07-31T05:24:10;14.90;99.90
34147;DHT22;20423;49.448;9.056;2023-07-31T05:26:36;15.00;99.90
34147;DHT22;20423;49.448;9.056;2023-07-31T05:29:03;15.00;99.90
34147;DHT22;20423;49.448;9.056;2023-07-31T05:31:29;15.10;99.90
34147;DHT22;20423;49.448;9.056;2023-07-31T05:33:54;15.20;99.90
34147;DHT22;20423;49.448;9.056;2023-07-31T05:36:20;15.20;99.90
34147;DHT22;20423;49.448;9.056;2023-07-31T05:38:45;15.30;99.90
34147;DHT22;20423;49.448;9.056;2023-07-31T05:41:11;15.30;99.90
34147;DHT22;20423;49.448;9.056;2023-07-31T05:43:37;15.30;99.90
34147;DHT22;20423;49.448;9.056;2023-07-31T05:46:02;15.40;99.90
34147;DHT22;20423;49.448;9.056;2023-07-31T05:48:28;15.30;99.90
34147;DHT22;20423;49.448;9.056;2023-07-31T05:50:54;15.30;99.90
34147;DHT22;20423;49.448;9.056;2023-07-31T05:53:19;15.30;99.90
34147;DHT22;20423;49.448;9.056;2023-07-31T05:55:45;15.30;99.90
34147;DHT22;20423;49.448;9.056;2023-07-31T05:58:10;15.20;99.90
34147;DHT22;20423;49.448;9.056;2023-07-31T06:00:36;15.20;99.90
34147;DHT22;20423;49.448;9.056;2023-07-31T06:03:02;15.20;99.90
34147;DHT22;20423;49.448;9.056;2023-07-31T06:05:28;15.30;99.90
34147;DHT22;20423;49.448;9.056;2023-07-31T06:07:55;15.40;99.90
34147;DHT22;20423;49.448;9.056;2023-07-31T06:10:21;15.60;99.90
34147;DHT22;20423;49.448;9.056;2023-07-31T06:12:46;15.70;99.90
34147;DHT22;20423;49.448;9.056;2023-07-31T06:15:12;15.80;99.90
34147;DHT22;20423;49.448;9.056;2023-07-31T06:17:38;15.90;99.90
34147;DHT22;20423;49.448;9.056;2023-07-31T06:20:05;16.10;99.90
34147;DHT22;20423;49.448;9.056;2023-07-31T06:22:31;16.30;99.90
34147;DHT22;20423;49.448;9.056;2023-07-31T06:24:57;16.30;99.90
34147;DHT22;20423;49.448;9.056;2023-07-31T06:27:23;16.40;99.90
34147;DHT22;20423;49.448;9.056;2023-07-31T06:29:49;16.40;99.90
34147;DHT22;20423;49.448;9.056;2023-07-31T06:32:14;16.40;99.90
34147;DHT22;20423;49.448;9.056;2023-07-31T06:34:40;16.40;99.90
34147;DHT22;20423;49.448;9.056;2023-07-31T06:37:05;16.40;99.90
34147;DHT22;20423;49.448;9.056;2023-07-31T06:39:31;16.50;99.90
34147;DHT22;20423;49.448;9.056;2023-07-31T06:41:57;16.40;99.90
34147;DHT22;20423;49.448;9.056;2023-07-31T06:44:22;16.30;99.90
34147;DHT22;20423;49.448;9.056;2023-07-31T06:46:48;16.30;99.90
34147;DHT22;20423;49.448;9.056;2023-07-31T06:49:14;16.40;99.90
34147;DHT22;20423;49.448;9.056;2023-07-31T06:51:40;16.40;99.90
34147;DHT22;20423;49.448;9.056;2023-07-31T06:54:08;16.40;99.90
34147;DHT22;20423;49.448;9.056;2023-07-31T06:56:34;16.50;99.90
34147;DHT22;20423;49.448;9.056;2023-07-31T06:59:00;16.70;99.90
34147;DHT22;20423;49.448;9.056;2023-07-31T07:01:25;16.90;99.90
34147;DHT22;20423;49.448;9.056;2023-07-31T07:03:51;16.90;99.90
34147;DHT22;20423;49.448;9.056;2023-07-31T07:06:17;16.80;99.90
34147;DHT22;20423;49.448;9.056;2023-07-31T07:08:43;16.70;99.90
34147;DHT22;20423;49.448;9.056;2023-07-31T07:11:09;16.70;99.90
34147;DHT22;20423;49.448;9.056;2023-07-31T07:13:34;16.80;99.90
34147;DHT22;20423;49.448;9.056;2023-07-31T07:16:00;16.90;99.90
34147;DHT22;20423;49.448;9.056;2023-07-31T07:18:25;16.90;99.90
34147;DHT22;20423;49.448;9.056;2023-07-31T07:20:52;17.10;99.90
34147;DHT22;20423;49.448;9.056;2023-07-31T07:23:18;17.30;99.90
34147;DHT22;20423;49.448;9.056;2023-07-31T07:25:44;17.30;99.90
34147;DHT22;20423;49.448;9.056;2023-07-31T07:28:10;17.20;99.90
34147;DHT22;20423;49.448;9.056;2023-07-31T07:30:36;17.40;99.90
34147;DHT22;20423;49.448;9.056;2023-07-31T07:33:01;17.70;99.90
34147;DHT22;20423;49.448;9.056;2023-07-31T07:35:27;17.70;99.90
34147;DHT22;20423;49.448;9.056;2023-07-31T07:37:53;17.60;99.90
34147;DHT22;20423;49.448;9.056;2023-07-31T07:40:19;17.60;99.90
34147;DHT22;20423;49.448;9.056;2023-07-31T07:42:45;17.70;99.90
34147;DHT22;20423;49.448;9.056;2023-07-31T07:45:10;17.60;99.90
34147;DHT22;20423;49.448;9.056;2023-07-31T07:47:37;17.70;99.90
34147;DHT22;20423;49.448;9.056;2023-07-31T07:50:03;17.70;99.90
34147;DHT22;20423;49.448;9.056;2023-07-31T07:52:29;17.70;99.90
34147;DHT22;20423;49.448;9.056;2023-07-31T07:54:54;18.10;99.90
34147;DHT22;20423;49.448;9.056;2023-07-31T07:57:20;18.30;99.90
34147;DHT22;20423;49.448;9.056;2023-07-31T07:59:47;18.50;99.90
34147;DHT22;20423;49.448;9.056;2023-07-31T08:02:16;18.70;99.90
34147;DHT22;20423;49.448;9.056;2023-07-31T08:04:42;18.90;99.90
34147;DHT22;20423;49.448;9.056;2023-07-31T08:07:07;18.90;99.90
34147;DHT22;20423;49.448;9.056;2023-07-31T08:09:33;19.00;99.90
34147;DHT22;20423;49.448;9.056;2023-07-31T08:11:58;19.10;99.90
34147;DHT22;20423;49.448;9.056;2023-07-31T08:14:27;19.00;99.90
34147;DHT22;20423;49.448;9.056;2023-07-31T08:16:53;19.20;99.90
34147;DHT22;20423;49.448;9.056;2023-07-31T08:19:18;19.10;99.90
34147;DHT22;20423;49.448;9.056;2023-07-31T08:21:44;18.80;99.90
34147;DHT22;20423;49.448;9.056;2023-07-31T08:24:10;18.60;99.90
34147;DHT22;20423;49.448;9.056;2023-07-31T08:30:04;18.80;99.90
34147;DHT22;20423;49.448;9.056;2023-07-31T08:35:21;18.50;99.90
34147;DHT22;20423;49.448;9.056;2023-07-31T08:37:46;18.40;99.90
34147;DHT22;20423;49.448;9.056;2023-07-31T08:40:12;18.30;99.90
34147;DHT22;20423;49.448;9.056;2023-07-31T08:42:45;18.40;99.90
34147;DHT22;20423;49.448;9.056;2023-07-31T08:45:14;18.70;99.90
34147;DHT22;20423;49.448;9.056;2023-07-31T08:47:40;19.30;99.90
34147;DHT22;20423;49.448;9.056;2023-07-31T08:50:06;19.40;99.90
34147;DHT22;20423;49.448;9.056;2023-07-31T08:52:31;19.50;99.90
34147;DHT22;20423;49.448;9.056;2023-07-31T09:01:00;19.70;99.90
34147;DHT22;20423;49.448;9.056;2023-07-31T09:03:26;19.50;99.90
34147;DHT22;20423;49.448;9.056;2023-07-31T09:05:52;19.50;99.90
34147;DHT22;20423;49.448;9.056;2023-07-31T09:08:19;20.00;99.90
34147;DHT22;20423;49.448;9.056;2023-07-31T09:10:45;20.50;99.90
34147;DHT22;20423;49.448;9.056;2023-07-31T09:13:14;20.90;99.90
34147;DHT22;20423;49.448;9.056;2023-07-31T09:15:40;21.80;99.90
34147;DHT22;20423;49.448;9.056;2023-07-31T09:18:08;22.30;99.90
34147;DHT22;20423;49.448;9.056;2023-07-31T09:20:34;22.60;99.90
34147;DHT22;20423;49.448;9.056;2023-07-31T09:23:04;23.00;99.90
34147;DHT22;20423;49.448;9.056;2023-07-31T09:25:30;22.80;99.90
34147;DHT22;20423;49.448;9.056;2023-07-31T09:28:00;22.60;99.90
34147;DHT22;20423;49.448;9.056;2023-07-31T09:30:26;22.90;99.90
34147;DHT22;20423;49.448;9.056;2023-07-31T09:32:59;22.30;99.90
34147;DHT22;20423;49.448;9.056;2023-07-31T09:38:26;22.20;99.90
34147;DHT22;20423;49.448;9.056;2023-07-31T09:40:51;22.00;99.90
34147;DHT22;20423;49.448;9.056;2023-07-31T09:43:18;22.10;99.90
34147;DHT22;20423;49.448;9.056;2023-07-31T09:45:44;21.50;99.90
34147;DHT22;20423;49.448;9.056;2023-07-31T09:48:11;21.10;99.90
34147;DHT22;20423;49.448;9.056;2023-07-31T09:50:38;21.90;99.90
34147;DHT22;20423;49.448;9.056;2023-07-31T09:53:04;22.70;99.90
34147;DHT22;20423;49.448;9.056;2023-07-31T09:55:30;23.30;99.90
34147;DHT22;20423;49.448;9.056;2023-07-31T09:57:57;23.00;99.90
34147;DHT22;20423;49.448;9.056;2023-07-31T10:00:23;22.60;99.90
34147;DHT22;20423;49.448;9.056;2023-07-31T10:02:50;22.50;99.90
34147;DHT22;20423;49.448;9.056;2023-07-31T10:05:16;22.40;99.90
34147;DHT22;20423;49.448;9.056;2023-07-31T10:07:52;22.70;99.90
34147;DHT22;20423;49.448;9.056;2023-07-31T10:10:19;23.40;99.90
34147;DHT22;20423;49.448;9.056;2023-07-31T10:12:46;23.40;99.90
34147;DHT22;20423;49.448;9.056;2023-07-31T10:15:12;22.60;99.90
34147;DHT22;20423;49.448;9.056;2023-07-31T10:17:38;21.90;99.90
34147;DHT22;20423;49.448;9.056;2023-07-31T10:20:03;21.50;99.90
34147;DHT22;20423;49.448;9.056;2023-07-31T10:22:30;21.50;99.90
34147;DHT22;20423;49.448;9.056;2023-07-31T10:24:57;21.60;99.90
34147;DHT22;20423;49.448;9.056;2023-07-31T10:27:23;21.70;99.90
34147;DHT22;20423;49.448;9.056;2023-07-31T10:32:45;21.80;99.90
34147;DHT22;20423;49.448;9.056;2023-07-31T10:35:11;21.20;99.90
34147;DHT22;20423;49.448;9.056;2023-07-31T10:37:38;21.20;99.90
34147;DHT22;20423;49.448;9.056;2023-07-31T10:40:05;21.40;99.90
34147;DHT22;20423;49.448;9.056;2023-07-31T10:42:32;21.50;99.90
34147;DHT22;20423;49.448;9.056;2023-07-31T10:45:10;21.70;99.90
34147;DHT22;20423;49.448;9.056;2023-07-31T10:47:37;21.80;99.90
34147;DHT22;20423;49.448;9.056;2023-07-31T10:50:10;21.40;99.90
34147;DHT22;20423;49.448;9.056;2023-07-31T10:52:39;21.00;99.90
34147;DHT22;20423;49.448;9.056;2023-07-31T10:55:14;21.20;99.90
34147;DHT22;20423;49.448;9.056;2023-07-31T10:57:44;21.30;99.90
34147;DHT22;20423;49.448;9.056;2023-07-31T11:02:57;20.90;99.90
34147;DHT22;20423;49.448;9.056;2023-07-31T11:10:39;20.90;99.90
34147;DHT22;20423;49.448;9.056;2023-07-31T11:13:05;21.10;99.90
34147;DHT22;20423;49.448;9.056;2023-07-31T11:15:31;21.30;99.90
34147;DHT22;20423;49.448;9.056;2023-07-31T11:17:57;21.40;99.90
34147;DHT22;20423;49.448;9.056;2023-07-31T11:20:25;22.10;99.90
34147;DHT22;20423;49.448;9.056;2023-07-31T11:22:51;22.00;99.90
34147;DHT22;20423;49.448;9.056;2023-07-31T11:25:16;21.40;99.90
34147;DHT22;20423;49.448;9.056;2023-07-31T11:27:43;21.40;99.90
34147;DHT22;20423;49.448;9.056;2023-07-31T11:30:09;21.60;99.90
34147;DHT22;20423;49.448;9.056;2023-07-31T11:32:38;21.70;99.90
34147;DHT22;20423;49.448;9.056;2023-07-31T11:35:04;21.80;99.90
34147;DHT22;20423;49.448;9.056;2023-07-31T11:37:41;21.80;99.90
34147;DHT22;20423;49.448;9.056;2023-07-31T11:40:07;22.00;99.90
34147;DHT22;20423;49.448;9.056;2023-07-31T11:42:33;23.00;99.90
34147;DHT22;20423;49.448;9.056;2023-07-31T11:45:01;22.90;99.90
34147;DHT22;20423;49.448;9.056;2023-07-31T11:47:27;22.80;99.90
34147;DHT22;20423;49.448;9.056;2023-07-31T11:49:52;22.90;99.90
34147;DHT22;20423;49.448;9.056;2023-07-31T11:52:18;22.70;99.90
34147;DHT22;20423;49.448;9.056;2023-07-31T11:57:52;23.60;99.90
34147;DHT22;20423;49.448;9.056;2023-07-31T12:00:19;23.60;99.90
34147;DHT22;20423;49.448;9.056;2023-07-31T12:02:53;22.90;99.90
34147;DHT22;20423;49.448;9.056;2023-07-31T12:05:19;22.20;99.90
34147;DHT22;20423;49.448;9.056;2023-07-31T12:07:45;22.40;99.90
34147;DHT22;20423;49.448;9.056;2023-07-31T12:10:11;21.60;99.90
34147;DHT22;20423;49.448;9.056;2023-07-31T12:12:37;21.30;99.90
34147;DHT22;20423;49.448;9.056;2023-07-31T12:15:02;21.20;99.90
34147;DHT22;20423;49.448;9.056;2023-07-31T12:17:28;21.20;99.90
34147;DHT22;20423;49.448;9.056;2023-07-31T12:19:54;21.40;99.90
34147;DHT22;20423;49.448;9.056;2023-07-31T12:22:19;21.30;99.90
34147;DHT22;20423;49.448;9.056;2023-07-31T12:24:46;21.10;99.90
34147;DHT22;20423;49.448;9.056;2023-07-31T12:27:12;21.20;99.90
34147;DHT22;20423;49.448;9.056;2023-07-31T12:29:38;21.40;99.90
34147;DHT22;20423;49.448;9.056;2023-07-31T12:32:05;21.40;99.90
34147;DHT22;20423;49.448;9.056;2023-07-31T12:34:43;21.40;99.90
34147;DHT22;20423;49.448;9.056;2023-07-31T12:37:09;21.60;99.90
34147;DHT22;20423;49.448;9.056;2023-07-31T12:39:34;22.10;99.90
34147;DHT22;20423;49.448;9.056;2023-07-31T12:42:00;22.30;99.90
34147;DHT22;20423;49.448;9.056;2023-07-31T12:44:25;22.30;99.90
34147;DHT22;20423;49.448;9.056;2023-07-31T12:46:51;22.20;99.90
34147;DHT22;20423;49.448;9.056;2023-07-31T12:49:16;22.90;99.90
34147;DHT22;20423;49.448;9.056;2023-07-31T12:51:42;23.50;99.90
34147;DHT22;20423;49.448;9.056;2023-07-31T12:54:08;24.00;99.90
34147;DHT22;20423;49.448;9.056;2023-07-31T12:56:33;24.80;99.90
34147;DHT22;20423;49.448;9.056;2023-07-31T12:58:59;25.10;99.90
34147;DHT22;20423;49.448;9.056;2023-07-31T13:01:25;24.20;99.90
34147;DHT22;20423;49.448;9.056;2023-07-31T13:03:50;24.10;99.90
34147;DHT22;20423;49.448;9.056;2023-07-31T13:06:18;24.40;99.90
34147;DHT22;20423;49.448;9.056;2023-07-31T13:08:43;23.90;99.90
34147;DHT22;20423;49.448;9.056;2023-07-31T13:11:12;23.40;99.90
34147;DHT22;20423;49.448;9.056;2023-07-31T13:13:38;23.00;99.90
34147;DHT22;20423;49.448;9.056;2023-07-31T13:16:03;22.90;99.90
34147;DHT22;20423;49.448;9.056;2023-07-31T13:18:29;23.00;99.90
34147;DHT22;20423;49.448;9.056;2023-07-31T13:20:54;23.00;99.90
34147;DHT22;20423;49.448;9.056;2023-07-31T13:23:20;23.10;99.90
34147;DHT22;20423;49.448;9.056;2023-07-31T13:25:45;23.30;99.90
34147;DHT22;20423;49.448;9.056;2023-07-31T13:28:11;23.30;99.90
34147;DHT22;20423;49.448;9.056;2023-07-31T13:30:37;22.90;99.90
34147;DHT22;20423;49.448;9.056;2023-07-31T13:33:03;22.60;99.90
34147;DHT22;20423;49.448;9.056;2023-07-31T13:35:28;22.00;99.90
34147;DHT22;20423;49.448;9.056;2023-07-31T13:37:56;21.60;99.90
34147;DHT22;20423;49.448;9.056;2023-07-31T13:40:22;21.30;99.90
34147;DHT22;20423;49.448;9.056;2023-07-31T13:42:48;21.20;99.90
34147;DHT22;20423;49.448;9.056;2023-07-31T13:45:14;21.40;99.90
34147;DHT22;20423;49.448;9.056;2023-07-31T13:47:39;21.60;99.90
34147;DHT22;20423;49.448;9.056;2023-07-31T13:50:05;21.80;99.90
34147;DHT22;20423;49.448;9.056;2023-07-31T13:52:31;22.00;99.90
34147;DHT22;20423;49.448;9.056;2023-07-31T13:54:56;22.70;99.90
34147;DHT22;20423;49.448;9.056;2023-07-31T13:57:31;23.40;99.90
34147;DHT22;20423;49.448;9.056;2023-07-31T13:59:57;23.50;99.90
34147;DHT22;20423;49.448;9.056;2023-07-31T14:02:22;23.20;99.90
34147;DHT22;20423;49.448;9.056;2023-07-31T14:04:48;22.70;99.90
34147;DHT22;20423;49.448;9.056;2023-07-31T14:07:13;21.60;99.90
34147;DHT22;20423;49.448;9.056;2023-07-31T14:09:39;21.30;99.90
34147;DHT22;20423;49.448;9.056;2023-07-31T14:12:05;21.30;99.90
34147;DHT22;20423;49.448;9.056;2023-07-31T14:14:30;21.20;99.90
34147;DHT22;20423;49.448;9.056;2023-07-31T14:16:56;21.10;99.90
34147;DHT22;20423;49.448;9.056;2023-07-31T14:19:21;20.70;99.90
34147;DHT22;20423;49.448;9.056;2023-07-31T14:21:47;20.60;99.90
34147;DHT22;20423;49.448;9.056;2023-07-31T14:24:13;20.60;99.90
34147;DHT22;20423;49.448;9.056;2023-07-31T14:26:38;20.50;99.90
34147;DHT22;20423;49.448;9.056;2023-07-31T14:29:04;20.50;99.90
34147;DHT22;20423;49.448;9.056;2023-07-31T14:31:29;20.50;99.90
34147;DHT22;20423;49.448;9.056;2023-07-31T14:33:55;20.30;99.90
34147;DHT22;20423;49.448;9.056;2023-07-31T14:36:21;20.30;99.90
34147;DHT22;20423;49.448;9.056;2023-07-31T14:38:46;20.30;99.90
34147;DHT22;20423;49.448;9.056;2023-07-31T14:41:12;20.30;99.90
34147;DHT22;20423;49.448;9.056;2023-07-31T14:43:37;20.30;99.90
34147;DHT22;20423;49.448;9.056;2023-07-31T14:46:03;20.60;99.90
34147;DHT22;20423;49.448;9.056;2023-07-31T14:48:28;20.80;99.90
34147;DHT22;20423;49.448;9.056;2023-07-31T14:50:54;20.70;99.90
34147;DHT22;20423;49.448;9.056;2023-07-31T14:53:20;20.90;99.90
34147;DHT22;20423;49.448;9.056;2023-07-31T14:55:46;21.10;99.90
34147;DHT22;20423;49.448;9.056;2023-07-31T14:58:12;21.30;99.90
34147;DHT22;20423;49.448;9.056;2023-07-31T15:00:39;21.50;99.90
34147;DHT22;20423;49.448;9.056;2023-07-31T15:03:04;21.60;99.90
34147;DHT22;20423;49.448;9.056;2023-07-31T15:08:59;21.40;99.90
34147;DHT22;20423;49.448;9.056;2023-07-31T15:11:25;22.00;99.90
34147;DHT22;20423;49.448;9.056;2023-07-31T15:13:50;22.00;99.90
34147;DHT22;20423;49.448;9.056;2023-07-31T15:16:16;21.80;99.90
34147;DHT22;20423;49.448;9.056;2023-07-31T15:18:41;21.60;99.90
34147;DHT22;20423;49.448;9.056;2023-07-31T15:21:07;21.20;99.90
34147;DHT22;20423;49.448;9.056;2023-07-31T15:23:34;21.20;99.90
34147;DHT22;20423;49.448;9.056;2023-07-31T15:26:00;21.20;99.90
34147;DHT22;20423;49.448;9.056;2023-07-31T15:28:25;20.90;99.90
34147;DHT22;20423;49.448;9.056;2023-07-31T15:30:51;21.20;99.90
34147;DHT22;20423;49.448;9.056;2023-07-31T15:33:16;21.40;99.90
34147;DHT22;20423;49.448;9.056;2023-07-31T15:35:42;21.60;99.90
34147;DHT22;20423;49.448;9.056;2023-07-31T15:38:08;21.90;99.90
34147;DHT22;20423;49.448;9.056;2023-07-31T15:40:34;22.00;99.90
34147;DHT22;20423;49.448;9.056;2023-07-31T15:43:00;22.00;99.90
34147;DHT22;20423;49.448;9.056;2023-07-31T15:45:27;22.60;99.90
34147;DHT22;20423;49.448;9.056;2023-07-31T15:47:53;22.70;99.90
34147;DHT22;20423;49.448;9.056;2023-07-31T15:50:18;22.70;99.90
34147;DHT22;20423;49.448;9.056;2023-07-31T15:52:44;22.30;99.90
34147;DHT22;20423;49.448;9.056;2023-07-31T15:55:10;22.30;99.90
34147;DHT22;20423;49.448;9.056;2023-07-31T15:57:35;21.90;99.90
34147;DHT22;20423;49.448;9.056;2023-07-31T16:00:01;21.70;99.90
34147;DHT22;20423;49.448;9.056;2023-07-31T16:02:33;21.80;99.90
34147;DHT22;20423;49.448;9.056;2023-07-31T16:04:59;21.70;99.90
34147;DHT22;20423;49.448;9.056;2023-07-31T16:07:25;21.70;99.90
34147;DHT22;20423;49.448;9.056;2023-07-31T16:09:50;21.50;99.90
34147;DHT22;20423;49.448;9.056;2023-07-31T16:12:16;21.40;99.90
34147;DHT22;20423;49.448;9.056;2023-07-31T16:14:41;21.50;99.90
34147;DHT22;20423;49.448;9.056;2023-07-31T16:17:07;21.50;99.90
34147;DHT22;20423;49.448;9.056;2023-07-31T16:19:32;21.40;99.90